createdAt,value
2023-02-04T00:00:18.560Z,100.00
2023-02-04T00:02:45.602Z,100.00
2023-02-04T00:05:13.456Z,100.00
2023-02-04T00:07:41.438Z,100.00
2023-02-04T00:10:08.612Z,100.00
2023-02-04T00:12:35.619Z,100.00
2023-02-04T00:15:02.600Z,100.00
2023-02-04T00:17:29.213Z,100.00
2023-02-04T00:19:56.275Z,100.00
2023-02-04T00:22:23.188Z,100.00
2023-02-04T00:24:50.717Z,100.00
2023-02-04T00:27:17.879Z,100.00
2023-02-04T00:29:44.618Z,100.00
2023-02-04T00:32:11.489Z,100.00
2023-02-04T00:34:38.365Z,100.00
2023-02-04T00:37:05.107Z,100.00
2023-02-04T00:39:31.683Z,100.00
2023-02-04T00:41:58.405Z,100.00
2023-02-04T00:44:25.111Z,100.00
2023-02-04T00:46:51.792Z,100.00
2023-02-04T00:49:18.479Z,100.00
2023-02-04T00:51:46.652Z,100.00
2023-02-04T00:54:16.005Z,100.00
2023-02-04T00:56:44.037Z,100.00
2023-02-04T00:59:11.095Z,100.00
2023-02-04T01:01:38.488Z,100.00
2023-02-04T01:04:05.825Z,100.00
2023-02-04T01:06:32.887Z,100.00
2023-02-04T01:08:59.897Z,100.00
2023-02-04T01:11:26.556Z,100.00
2023-02-04T01:13:53.658Z,100.00
2023-02-04T01:16:20.280Z,100.00
2023-02-04T01:18:47.147Z,100.00
2023-02-04T01:21:13.863Z,100.00
2023-02-04T01:23:40.533Z,100.00
2023-02-04T01:26:07.295Z,100.00
2023-02-04T01:28:34.046Z,100.00
2023-02-04T01:31:01.263Z,100.00
2023-02-04T01:33:28.082Z,100.00
2023-02-04T01:35:54.720Z,100.00
2023-02-04T01:38:21.898Z,100.00
2023-02-04T01:40:48.597Z,100.00
2023-02-04T01:43:17.901Z,100.00
2023-02-04T01:45:46.352Z,100.00
2023-02-04T01:48:14.260Z,100.00
2023-02-04T01:50:40.950Z,100.00
2023-02-04T01:53:07.695Z,100.00
2023-02-04T01:55:34.579Z,100.00
2023-02-04T01:58:02.378Z,100.00
2023-02-04T02:00:31.710Z,100.00
2023-02-04T02:03:00.095Z,100.00
2023-02-04T02:05:39.449Z,100.00
2023-02-04T02:08:07.403Z,100.00
2023-02-04T02:10:35.105Z,100.00
2023-02-04T02:13:01.946Z,100.00
2023-02-04T02:15:28.762Z,100.00
2023-02-04T02:17:56.056Z,100.00
2023-02-04T02:20:24.604Z,100.00
2023-02-04T02:23:15.859Z,100.00
2023-02-04T02:25:42.901Z,100.00
2023-02-04T02:28:13.532Z,100.00
2023-02-04T02:30:41.090Z,100.00
2023-02-04T02:33:08.284Z,100.00
2023-02-04T02:35:35.071Z,100.00
2023-02-04T02:38:01.667Z,100.00
2023-02-04T02:40:28.585Z,100.00
2023-02-04T02:42:55.661Z,100.00
2023-02-04T02:45:24.299Z,100.00
2023-02-04T02:47:51.653Z,100.00
2023-02-04T02:50:23.795Z,100.00
2023-02-04T02:52:50.685Z,100.00
2023-02-04T02:55:19.697Z,100.00
2023-02-04T02:57:48.277Z,100.00
2023-02-04T03:00:18.323Z,100.00
2023-02-04T03:02:49.549Z,100.00
2023-02-04T03:05:16.392Z,100.00
2023-02-04T03:07:43.275Z,100.00
2023-02-04T03:10:10.158Z,100.00
2023-02-04T03:12:36.873Z,100.00
2023-02-04T03:15:05.178Z,100.00
2023-02-04T03:17:32.475Z,100.00
2023-02-04T03:19:59.591Z,100.00
2023-02-04T03:22:26.408Z,100.00
2023-02-04T03:24:53.085Z,100.00
2023-02-04T03:27:19.987Z,100.00
2023-02-04T03:29:46.623Z,100.00
2023-02-04T03:32:13.219Z,100.00
2023-02-04T03:34:39.825Z,100.00
2023-02-04T03:37:06.638Z,100.00
2023-02-04T03:39:33.225Z,100.00
2023-02-04T03:41:59.824Z,100.00
2023-02-04T03:44:27.028Z,100.00
2023-02-04T03:46:55.736Z,100.00
2023-02-04T03:49:23.124Z,100.00
2023-02-04T03:51:50.253Z,100.00
2023-02-04T03:54:17.020Z,100.00
2023-02-04T03:56:43.725Z,100.00
2023-02-04T03:59:10.310Z,100.00
2023-02-04T04:01:36.936Z,100.00
2023-02-04T04:04:03.636Z,100.00
2023-02-04T04:06:31.572Z,100.00
2023-02-04T04:08:58.211Z,100.00
2023-02-04T04:11:25.037Z,100.00
2023-02-04T04:13:52.050Z,100.00
2023-02-04T04:16:20.933Z,100.00
2023-02-04T04:18:47.579Z,100.00
2023-02-04T04:21:14.281Z,100.00
2023-02-04T04:23:40.923Z,100.00
2023-02-04T04:26:07.505Z,100.00
2023-02-04T04:28:34.021Z,100.00
2023-02-04T04:31:00.711Z,100.00
2023-02-04T04:33:27.377Z,100.00
2023-02-04T04:35:54.036Z,100.00
2023-02-04T04:38:20.664Z,100.00
2023-02-04T04:40:47.347Z,100.00
2023-02-04T04:43:14.031Z,100.00
2023-02-04T04:45:40.748Z,100.00
2023-02-04T04:48:07.397Z,100.00
2023-02-04T04:50:34.378Z,100.00
2023-02-04T04:53:01.218Z,100.00
2023-02-04T04:55:27.880Z,100.00
2023-02-04T04:57:54.499Z,100.00
2023-02-04T05:00:22.010Z,100.00
2023-02-04T05:02:48.717Z,100.00
2023-02-04T05:05:15.540Z,100.00
2023-02-04T05:07:42.272Z,100.00
2023-02-04T05:10:09.342Z,100.00
2023-02-04T05:12:35.965Z,100.00
2023-02-04T05:15:02.985Z,100.00
2023-02-04T05:17:29.707Z,100.00
2023-02-04T05:19:56.394Z,100.00
2023-02-04T05:22:23.044Z,100.00
2023-02-04T05:24:49.590Z,100.00
2023-02-04T05:27:16.105Z,100.00
2023-02-04T05:29:42.770Z,100.00
2023-02-04T05:32:09.832Z,100.00
2023-02-04T05:34:36.520Z,100.00
2023-02-04T05:37:03.204Z,100.00
2023-02-04T05:39:29.772Z,100.00
2023-02-04T05:41:56.376Z,100.00
2023-02-04T05:44:22.944Z,100.00
2023-02-04T05:46:49.462Z,100.00
2023-02-04T05:49:16.191Z,100.00
2023-02-04T05:51:42.765Z,100.00
2023-02-04T05:54:09.332Z,100.00
2023-02-04T05:56:36.081Z,100.00
2023-02-04T05:59:02.677Z,100.00
2023-02-04T06:01:29.375Z,100.00
2023-02-04T06:03:56.149Z,100.00
2023-02-04T06:06:22.858Z,100.00
2023-02-04T06:08:49.451Z,100.00
2023-02-04T06:11:16.116Z,100.00
2023-02-04T06:13:42.887Z,100.00
2023-02-04T06:16:09.582Z,100.00
2023-02-04T06:18:36.247Z,100.00
2023-02-04T06:21:04.991Z,100.00
2023-02-04T06:23:34.244Z,100.00
2023-02-04T06:26:02.686Z,100.00
2023-02-04T06:28:29.386Z,100.00
2023-02-04T06:30:56.138Z,100.00
2023-02-04T06:33:24.359Z,100.00
2023-02-04T06:35:51.608Z,100.00
2023-02-04T06:38:18.706Z,100.00
2023-02-04T06:40:47.021Z,100.00
2023-02-04T06:43:13.592Z,100.00
2023-02-04T06:45:40.151Z,100.00
2023-02-04T06:48:06.951Z,100.00
2023-02-04T06:50:33.963Z,100.00
2023-02-04T06:53:00.794Z,100.00
2023-02-04T06:55:27.412Z,100.00
2023-02-04T06:57:53.976Z,94.83
2023-02-04T07:00:20.840Z,90.92
2023-02-04T07:02:47.438Z,87.25
2023-02-04T07:05:14.240Z,88.14
2023-02-04T07:07:41.383Z,84.03
2023-02-04T07:10:08.518Z,81.96
2023-02-04T07:12:35.150Z,83.01
2023-02-04T07:15:01.872Z,81.67
2023-02-04T07:17:28.465Z,77.62
2023-02-04T07:19:55.025Z,76.71
2023-02-04T07:22:22.457Z,77.58
2023-02-04T07:24:49.621Z,79.56
2023-02-04T07:27:16.621Z,80.04
2023-02-04T07:29:43.300Z,79.33
2023-02-04T07:32:09.994Z,77.39
2023-02-04T07:34:36.919Z,75.45
2023-02-04T07:37:03.546Z,74.47
2023-02-04T07:39:30.228Z,73.78
2023-02-04T07:41:56.992Z,70.09
2023-02-04T07:44:23.774Z,70.50
2023-02-04T07:46:50.376Z,68.81
2023-02-04T07:49:17.052Z,68.17
2023-02-04T07:51:43.863Z,69.08
2023-02-04T07:54:10.605Z,69.08
2023-02-04T07:56:37.462Z,69.75
2023-02-04T07:59:04.186Z,71.71
2023-02-04T08:01:30.879Z,73.73
2023-02-04T08:03:57.855Z,74.56
2023-02-04T08:06:24.528Z,77.73
2023-02-04T08:08:51.082Z,80.04
2023-02-04T08:11:17.630Z,81.34
2023-02-04T08:13:44.668Z,82.23
2023-02-04T08:16:12.036Z,84.03
2023-02-04T08:18:38.749Z,84.07
2023-02-04T08:21:06.355Z,85.33
2023-02-04T08:23:41.511Z,87.84
2023-02-04T08:26:12.096Z,88.24
2023-02-04T08:28:39.100Z,88.11
2023-02-04T08:31:07.344Z,89.39
2023-02-04T08:33:34.242Z,90.49
2023-02-04T08:36:00.902Z,90.77
2023-02-04T08:38:27.849Z,90.37
2023-02-04T08:40:54.687Z,90.06
2023-02-04T08:43:21.418Z,89.39
2023-02-04T08:45:48.020Z,91.29
2023-02-04T08:48:14.578Z,93.06
2023-02-04T08:50:41.128Z,95.78
2023-02-04T08:53:07.833Z,98.61
2023-02-04T08:55:34.451Z,100.00
2023-02-04T08:58:02.667Z,100.00
2023-02-04T09:00:30.449Z,100.00
2023-02-04T09:02:57.428Z,100.00
2023-02-04T09:05:24.392Z,100.00
2023-02-04T09:07:51.397Z,100.00
2023-02-04T09:10:18.208Z,100.00
2023-02-04T09:12:45.034Z,98.17
2023-02-04T09:15:12.434Z,97.29
2023-02-04T09:17:39.226Z,95.79
2023-02-04T09:20:06.835Z,94.85
2023-02-04T09:22:33.624Z,95.23
2023-02-04T09:25:00.341Z,94.00
2023-02-04T09:27:27.432Z,91.48
2023-02-04T09:29:54.066Z,90.88
2023-02-04T09:32:20.809Z,91.85
2023-02-04T09:34:47.611Z,93.10
2023-02-04T09:37:14.362Z,96.46
2023-02-04T09:39:41.040Z,100.00
2023-02-04T09:42:12.804Z,100.00
2023-02-04T09:44:39.507Z,100.00
2023-02-04T09:47:06.222Z,100.00
2023-02-04T09:49:33.351Z,100.00
2023-02-04T09:51:59.986Z,100.00
2023-02-04T09:54:26.903Z,100.00
2023-02-04T09:56:53.554Z,100.00
2023-02-04T09:59:22.745Z,100.00
2023-02-04T10:02:00.380Z,100.00
2023-02-04T10:04:27.480Z,100.00
2023-02-04T10:06:58.643Z,100.00
2023-02-04T10:09:25.589Z,100.00
2023-02-04T10:11:52.257Z,100.00
2023-02-04T10:14:22.678Z,100.00
2023-02-04T10:16:59.563Z,100.00
2023-02-04T10:19:29.144Z,100.00
2023-02-04T10:21:57.362Z,100.00
2023-02-04T10:24:26.610Z,100.00
2023-02-04T10:26:54.290Z,100.00
2023-02-04T10:29:25.633Z,100.00
2023-02-04T10:31:53.170Z,100.00
2023-02-04T10:34:32.285Z,100.00
2023-02-04T10:36:58.920Z,100.00
2023-02-04T10:39:30.141Z,100.00
2023-02-04T10:42:01.310Z,100.00
2023-02-04T10:44:31.252Z,100.00
2023-02-04T10:47:30.885Z,100.00
2023-02-04T10:50:07.368Z,100.00
2023-02-04T10:52:40.323Z,100.00
2023-02-04T10:55:12.446Z,100.00
2023-02-04T10:57:40.416Z,100.00
2023-02-04T11:00:16.097Z,100.00
2023-02-04T11:03:01.363Z,100.00
2023-02-04T11:05:33.465Z,100.00
2023-02-04T11:08:00.581Z,100.00
2023-02-04T11:10:33.265Z,100.00
2023-02-04T11:13:05.028Z,100.00
2023-02-04T11:15:50.541Z,100.00
2023-02-04T11:18:20.777Z,100.00
2023-02-04T11:20:53.110Z,100.00
2023-02-04T11:23:25.925Z,100.00
2023-02-04T11:26:22.576Z,100.00
2023-02-04T11:28:57.513Z,100.00
2023-02-04T11:31:24.154Z,100.00
2023-02-04T11:34:03.288Z,100.00
2023-02-04T11:36:30.775Z,100.00
2023-02-04T11:38:57.672Z,100.00
2023-02-04T11:41:29.271Z,100.00
2023-02-04T11:43:57.967Z,100.00
2023-02-04T11:46:28.408Z,100.00
2023-02-04T11:48:56.729Z,100.00
2023-02-04T11:51:34.380Z,100.00
2023-02-04T11:54:00.959Z,100.00
2023-02-04T11:56:30.712Z,100.00
2023-02-04T11:58:58.818Z,100.00
2023-02-04T12:01:31.846Z,100.00
2023-02-04T12:04:03.900Z,100.00
2023-02-04T12:06:33.991Z,100.00
2023-02-04T12:09:09.106Z,100.00
2023-02-04T12:11:35.993Z,100.00
2023-02-04T12:14:13.055Z,100.00
2023-02-04T12:16:56.366Z,100.00
2023-02-04T12:19:23.584Z,100.00
2023-02-04T12:21:50.344Z,100.00
2023-02-04T12:24:17.074Z,100.00
2023-02-04T12:26:43.679Z,100.00
2023-02-04T12:29:10.379Z,100.00
2023-02-04T12:31:37.182Z,100.00
2023-02-04T12:34:03.906Z,100.00
2023-02-04T12:36:30.705Z,100.00
2023-02-04T12:38:58.844Z,100.00
2023-02-04T12:41:26.108Z,100.00
2023-02-04T12:43:55.010Z,100.00
2023-02-04T12:46:21.918Z,100.00
2023-02-04T12:48:48.519Z,100.00
2023-02-04T12:51:15.099Z,100.00
2023-02-04T12:53:41.834Z,100.00
2023-02-04T12:56:08.498Z,100.00
2023-02-04T12:58:35.121Z,100.00
2023-02-04T13:01:04.057Z,100.00
2023-02-04T13:03:31.541Z,100.00
2023-02-04T13:05:58.324Z,100.00
2023-02-04T13:08:25.206Z,100.00
2023-02-04T13:10:52.067Z,100.00
2023-02-04T13:13:20.046Z,100.00
2023-02-04T13:15:47.207Z,100.00
2023-02-04T13:18:15.245Z,100.00
2023-02-04T13:20:43.428Z,100.00
2023-02-04T13:23:10.098Z,100.00
2023-02-04T13:25:36.740Z,100.00
2023-02-04T13:28:03.378Z,100.00
2023-02-04T13:30:30.131Z,100.00
2023-02-04T13:32:56.828Z,100.00
2023-02-04T13:35:23.592Z,100.00
2023-02-04T13:37:50.099Z,100.00
2023-02-04T13:40:16.972Z,100.00
2023-02-04T13:42:43.610Z,100.00
2023-02-04T13:45:12.648Z,100.00
2023-02-04T13:47:39.790Z,100.00
2023-02-04T13:50:07.004Z,100.00
2023-02-04T13:52:34.590Z,100.00
2023-02-04T13:55:01.597Z,100.00
2023-02-04T13:57:28.226Z,100.00
2023-02-04T13:59:54.951Z,100.00
2023-02-04T14:02:23.793Z,100.00
2023-02-04T14:04:50.448Z,100.00
2023-02-04T14:07:17.182Z,100.00
2023-02-04T14:09:43.815Z,100.00
2023-02-04T14:12:10.589Z,100.00
2023-02-04T14:14:37.277Z,100.00
2023-02-04T14:17:04.396Z,100.00
2023-02-04T14:19:31.237Z,100.00
2023-02-04T14:21:58.632Z,100.00
2023-02-04T14:24:25.458Z,100.00
2023-02-04T14:26:52.208Z,100.00
2023-02-04T14:29:18.950Z,100.00
2023-02-04T14:31:45.674Z,100.00
2023-02-04T14:34:12.332Z,100.00
2023-02-04T14:36:39.211Z,100.00
2023-02-04T14:39:05.797Z,100.00
2023-02-04T14:41:32.389Z,100.00
2023-02-04T14:43:59.006Z,100.00
2023-02-04T14:46:25.728Z,100.00
2023-02-04T14:48:52.675Z,100.00
2023-02-04T14:51:19.717Z,100.00
2023-02-04T14:53:48.684Z,100.00
2023-02-04T14:56:15.999Z,100.00
2023-02-04T14:58:42.730Z,100.00
2023-02-04T15:01:09.566Z,100.00
2023-02-04T15:03:36.420Z,100.00
2023-02-04T15:06:03.574Z,100.00
2023-02-04T15:08:30.238Z,100.00
2023-02-04T15:10:57.055Z,100.00
2023-02-04T15:13:24.523Z,100.00
2023-02-04T15:15:51.216Z,100.00
2023-02-04T15:18:17.931Z,100.00
2023-02-04T15:21:04.313Z,100.00
2023-02-04T15:23:49.346Z,100.00
2023-02-04T15:26:16.123Z,100.00
2023-02-04T15:28:42.723Z,100.00
2023-02-04T15:34:30.938Z,100.00
2023-02-04T15:39:43.726Z,100.00
2023-02-04T15:42:11.076Z,100.00
2023-02-04T15:44:37.709Z,100.00
2023-02-04T15:47:06.377Z,100.00
2023-02-04T15:49:34.108Z,100.00
2023-02-04T15:52:02.373Z,100.00
2023-02-04T15:54:29.329Z,100.00
2023-02-04T15:56:56.138Z,100.00
2023-02-04T15:59:22.803Z,100.00
2023-02-04T16:01:50.838Z,100.00
2023-02-04T16:04:19.261Z,100.00
2023-02-04T16:06:57.865Z,100.00
2023-02-04T16:09:26.151Z,100.00
2023-02-04T16:11:52.838Z,100.00
2023-02-04T16:14:19.514Z,100.00
2023-02-04T16:16:46.171Z,100.00
2023-02-04T16:19:12.921Z,100.00
2023-02-04T16:21:39.595Z,100.00
2023-02-04T16:24:06.554Z,100.00
2023-02-04T16:26:33.244Z,100.00
2023-02-04T16:28:59.879Z,100.00
2023-02-04T16:31:26.688Z,100.00
2023-02-04T16:33:53.385Z,100.00
2023-02-04T16:36:20.250Z,100.00
2023-02-04T16:38:46.836Z,100.00
2023-02-04T16:41:14.456Z,100.00
2023-02-04T16:43:41.729Z,100.00
2023-02-04T16:46:08.889Z,100.00
2023-02-04T16:48:36.648Z,100.00
2023-02-04T16:51:03.852Z,100.00
2023-02-04T16:53:30.527Z,100.00
2023-02-04T16:55:57.298Z,100.00
2023-02-04T16:58:24.215Z,100.00
2023-02-04T17:00:51.044Z,100.00
2023-02-04T17:03:17.985Z,100.00
2023-02-04T17:05:44.790Z,100.00
2023-02-04T17:08:13.592Z,100.00
2023-02-04T17:10:59.367Z,100.00
2023-02-04T17:13:26.073Z,100.00
2023-02-04T17:15:54.248Z,100.00
2023-02-04T17:18:20.927Z,100.00
2023-02-04T17:20:47.490Z,100.00
2023-02-04T17:23:14.159Z,100.00
2023-02-04T17:25:40.953Z,100.00
2023-02-04T17:28:07.771Z,100.00
2023-02-04T17:30:34.457Z,100.00
2023-02-04T17:33:01.133Z,100.00
2023-02-04T17:35:27.847Z,100.00
2023-02-04T17:37:54.880Z,100.00
2023-02-04T17:40:21.777Z,100.00
2023-02-04T17:42:48.729Z,100.00
2023-02-04T17:45:15.471Z,100.00
2023-02-04T17:47:43.496Z,100.00
2023-02-04T17:50:11.614Z,100.00
2023-02-04T17:52:38.882Z,100.00
2023-02-04T17:55:23.779Z,100.00
2023-02-04T17:57:52.144Z,100.00
2023-02-04T18:00:21.193Z,100.00
2023-02-04T18:02:50.096Z,100.00
2023-02-04T18:05:28.141Z,100.00
2023-02-04T18:08:16.305Z,100.00
2023-02-04T18:10:48.482Z,100.00
2023-02-04T18:13:25.601Z,100.00
2023-02-04T18:15:58.720Z,100.00
2023-02-04T18:18:28.155Z,100.00
2023-02-04T18:20:58.292Z,100.00
2023-02-04T18:23:25.885Z,100.00
2023-02-04T18:25:52.846Z,100.00
2023-02-04T18:28:21.786Z,100.00
2023-02-04T18:30:53.254Z,100.00
2023-02-04T18:33:23.411Z,100.00
2023-02-04T18:35:51.914Z,100.00
2023-02-04T18:38:22.124Z,100.00
2023-02-04T18:40:49.799Z,100.00
2023-02-04T18:43:32.101Z,100.00
2023-02-04T18:46:07.840Z,100.00
2023-02-04T18:48:53.188Z,100.00
2023-02-04T18:51:27.435Z,100.00
2023-02-04T18:53:59.277Z,100.00
2023-02-04T18:56:25.905Z,100.00
2023-02-04T18:58:52.783Z,100.00
2023-02-04T19:01:27.594Z,100.00
2023-02-04T19:03:58.525Z,100.00
2023-02-04T19:06:31.802Z,100.00
2023-02-04T19:09:10.535Z,100.00
2023-02-04T19:11:41.213Z,100.00
2023-02-04T19:14:39.273Z,100.00
2023-02-04T19:17:17.715Z,100.00
2023-02-04T19:19:53.359Z,100.00
2023-02-04T19:23:03.061Z,100.00
2023-02-04T19:25:33.775Z,100.00
2023-02-04T19:28:02.897Z,100.00
2023-02-04T19:30:29.674Z,100.00
2023-02-04T19:32:58.568Z,100.00
2023-02-04T19:35:28.004Z,100.00
2023-02-04T19:38:00.988Z,100.00
2023-02-04T19:40:37.399Z,100.00
2023-02-04T19:43:33.871Z,100.00
2023-02-04T19:46:00.423Z,100.00
2023-02-04T19:48:36.284Z,100.00
2023-02-04T19:51:27.962Z,100.00
2023-02-04T19:54:02.783Z,100.00
2023-02-04T19:56:35.585Z,100.00
2023-02-04T19:59:33.506Z,100.00
2023-02-04T20:02:27.848Z,100.00
2023-02-04T20:04:55.207Z,100.00
2023-02-04T20:07:24.766Z,100.00
2023-02-04T20:10:00.979Z,100.00
2023-02-04T20:12:29.815Z,100.00
2023-02-04T20:14:57.280Z,100.00
2023-02-04T20:17:40.950Z,100.00
2023-02-04T20:20:30.690Z,100.00
2023-02-04T20:22:59.013Z,100.00
2023-02-04T20:25:37.800Z,100.00
2023-02-04T20:28:42.931Z,100.00
2023-02-04T20:31:23.964Z,100.00
2023-02-04T20:33:53.714Z,100.00
2023-02-04T20:36:23.508Z,100.00
2023-02-04T20:38:50.226Z,100.00
2023-02-04T20:41:20.469Z,100.00
2023-02-04T20:43:51.493Z,100.00
2023-02-04T20:46:24.999Z,100.00
2023-02-04T20:48:52.506Z,100.00
2023-02-04T20:51:23.365Z,100.00
2023-02-04T20:53:51.081Z,100.00
2023-02-04T20:56:25.473Z,100.00
2023-02-04T20:59:12.348Z,100.00
2023-02-04T21:01:38.897Z,100.00
2023-02-04T21:04:24.833Z,100.00
2023-02-04T21:06:54.262Z,100.00
2023-02-04T21:09:25.129Z,100.00
2023-02-04T21:11:53.122Z,100.00
2023-02-04T21:14:20.648Z,100.00
2023-02-04T21:16:47.542Z,100.00
2023-02-04T21:19:14.625Z,100.00
2023-02-04T21:21:42.185Z,100.00
2023-02-04T21:24:09.031Z,100.00
2023-02-04T21:26:36.172Z,100.00
2023-02-04T21:29:02.999Z,100.00
2023-02-04T21:31:29.807Z,100.00
2023-02-04T21:33:57.229Z,100.00
2023-02-04T21:36:27.897Z,100.00
2023-02-04T21:38:56.150Z,100.00
2023-02-04T21:41:24.262Z,100.00
2023-02-04T21:43:51.472Z,100.00
2023-02-04T21:46:19.029Z,100.00
2023-02-04T21:48:46.373Z,100.00
2023-02-04T21:51:14.171Z,100.00
2023-02-04T21:53:40.892Z,100.00
2023-02-04T21:56:08.575Z,100.00
2023-02-04T21:58:36.295Z,100.00
2023-02-04T22:01:03.015Z,100.00
2023-02-04T22:03:29.894Z,100.00
2023-02-04T22:05:56.598Z,100.00
2023-02-04T22:08:23.666Z,100.00
2023-02-04T22:10:50.456Z,100.00
2023-02-04T22:13:17.203Z,100.00
2023-02-04T22:15:44.207Z,100.00
2023-02-04T22:18:11.716Z,100.00
2023-02-04T22:20:39.514Z,100.00
2023-02-04T22:23:06.785Z,100.00
2023-02-04T22:25:33.736Z,100.00
2023-02-04T22:28:00.551Z,100.00
2023-02-04T22:30:27.393Z,100.00
2023-02-04T22:32:55.855Z,100.00
2023-02-04T22:35:22.973Z,100.00
2023-02-04T22:37:49.762Z,100.00
2023-02-04T22:40:16.679Z,100.00
2023-02-04T22:42:43.647Z,100.00
2023-02-04T22:45:10.506Z,100.00
2023-02-04T22:47:37.334Z,100.00
2023-02-04T22:50:04.204Z,100.00
2023-02-04T22:52:31.424Z,100.00
2023-02-04T22:54:58.481Z,100.00
2023-02-04T22:57:25.107Z,100.00
2023-02-04T22:59:52.177Z,100.00
2023-02-04T23:02:18.855Z,100.00
2023-02-04T23:04:45.608Z,100.00
2023-02-04T23:07:13.300Z,100.00
2023-02-04T23:09:40.396Z,100.00
2023-02-04T23:12:13.592Z,100.00
2023-02-04T23:14:45.475Z,100.00
2023-02-04T23:17:13.724Z,100.00
2023-02-04T23:19:40.960Z,100.00
2023-02-04T23:22:09.380Z,100.00
2023-02-04T23:24:37.066Z,100.00
2023-02-04T23:27:04.644Z,100.00
2023-02-04T23:29:32.407Z,100.00
2023-02-04T23:31:59.583Z,100.00
2023-02-04T23:34:26.364Z,100.00
2023-02-04T23:36:53.109Z,100.00
2023-02-04T23:39:23.307Z,100.00
2023-02-04T23:41:49.977Z,100.00
2023-02-04T23:44:17.113Z,100.00
2023-02-04T23:46:44.000Z,100.00
2023-02-04T23:49:11.014Z,100.00
2023-02-04T23:51:39.007Z,100.00
2023-02-04T23:54:06.240Z,100.00
2023-02-04T23:56:33.170Z,100.00
2023-02-04T23:58:59.920Z,100.00
